Capitol Logistics 108


KSEA
Seattle-Tacoma International Airport
Seattle, Washington, US
PHNL
Daniel K Inouye International Airport
Honolulu, Hawaii, US

Activity Log

Date Flight Route Aircraft Duration
05/19/2019 CPX108 HAROB6 HQM SEDAR 43N131W 40N136W 37N140W/N0489F360 HELOP A332 AUNTI R463 APACK KAENA2 B744 5h 21m

Route Details

Aircraft Information
Primary: Boeing 747-400BCF
Backup: Boeing 777-200LRF
Route Data
Distance: 2329nm
Sched. Duration: 6h 00m
Avg. Duration: 5h 21m (-78m)
Times Flown: 1
Recm'd Route: HAROB6 HQM SEDAR FOZZI HEKAB A332 HALLI BOARD R464 BITTA MAGGI3
Planned Altitude: 36,000ft
Origin Wx: KSEA 030253Z 21003KT 10SM BKN035 14/08 A3022 RMK AO2 SLP240 60000 T01440083 51004
Dest. Wx: PHNL 030253Z 03013KT 10SM FEW025 SCT040 30/20 A2998 RMK AO2 SLP150 T03000200 55009
Notes:

Financial History
Total Freight: 126,008lbs
Average Load: 126,008lbs/flt
Fuel Used: 108,090lbs
Avg. Fuel Used: 108,090lbs/flt
Fuel Expense: $121,061
Avg. Fuel Expense: $121,061
Avg. Fuel Cost: $1.12/lbs
Total Gross Income: $165,070
Pilot Pay: $149
Total Expenses: $17,880
Total Revenue: $24,847
Average Revenue: $165,070.48